Parish, New York
Current Conditions -  °F | °C
As of 6:54 PM on Friday 24 Oct 2014 (Local Time) from KFZY Reporting Station
Clear Clear  
Wind Chill: 45°   Ceiling: Unl
Heat Index: 49°   Visibility: 10mi
Dew Point: 38°   Wind: 8mph
Humidity: 66%   Direction: 290°WNW
Pressure: 29.9"   Gusts: NA
Location:  43.41°N, 76.13°W
Report Text: KFZY 242254Z AUTO 29007KT 10SM CLR 09/03 A2990 RMK AO2 SLP128 T00940033
Loading
Personal Weather Stations






























Interactive Weather Map New forecast layout! Learn more

10-Day Weather Forecast

Advertisements
Track Severe Weather on mobile